sensor_id;sensor_type;location;lat;lon;timestamp;P1;durP1;ratioP1;P2;durP2;ratioP2
19727;SDS011;10015;52.530;13.390;2023-02-17T00:01:00;27.67;;;14.97;;
19727;SDS011;10015;52.530;13.390;2023-02-17T00:03:33;35.47;;;17.10;;
19727;SDS011;10015;52.530;13.390;2023-02-17T00:05:58;32.90;;;16.30;;
19727;SDS011;10015;52.530;13.390;2023-02-17T00:08:30;31.73;;;16.10;;
19727;SDS011;10015;52.530;13.390;2023-02-17T00:10:56;36.30;;;17.27;;
19727;SDS011;10015;52.530;13.390;2023-02-17T00:13:22;33.27;;;16.47;;
19727;SDS011;10015;52.530;13.390;2023-02-17T00:15:48;30.73;;;16.43;;
19727;SDS011;10015;52.530;13.390;2023-02-17T00:18:14;33.57;;;16.73;;
19727;SDS011;10015;52.530;13.390;2023-02-17T00:20:40;35.53;;;17.40;;
19727;SDS011;10015;52.530;13.390;2023-02-17T00:23:06;33.60;;;16.77;;
19727;SDS011;10015;52.530;13.390;2023-02-17T00:25:32;34.50;;;17.40;;
19727;SDS011;10015;52.530;13.390;2023-02-17T00:27:58;34.57;;;17.47;;
19727;SDS011;10015;52.530;13.390;2023-02-17T00:30:24;36.00;;;17.50;;
19727;SDS011;10015;52.530;13.390;2023-02-17T00:32:51;34.10;;;16.47;;
19727;SDS011;10015;52.530;13.390;2023-02-17T00:35:18;34.37;;;17.90;;
19727;SDS011;10015;52.530;13.390;2023-02-17T00:37:45;32.37;;;16.83;;
19727;SDS011;10015;52.530;13.390;2023-02-17T00:40:11;36.77;;;17.53;;
19727;SDS011;10015;52.530;13.390;2023-02-17T00:42:38;34.77;;;17.47;;
19727;SDS011;10015;52.530;13.390;2023-02-17T00:45:04;38.10;;;17.67;;
19727;SDS011;10015;52.530;13.390;2023-02-17T00:47:31;37.80;;;17.90;;
19727;SDS011;10015;52.530;13.390;2023-02-17T00:49:57;36.53;;;17.77;;
19727;SDS011;10015;52.530;13.390;2023-02-17T00:52:25;34.53;;;17.77;;
19727;SDS011;10015;52.530;13.390;2023-02-17T00:54:51;37.37;;;17.67;;
19727;SDS011;10015;52.530;13.390;2023-02-17T00:57:17;34.50;;;17.63;;
19727;SDS011;10015;52.530;13.390;2023-02-17T00:59:43;37.27;;;17.53;;
19727;SDS011;10015;52.530;13.390;2023-02-17T01:02:09;35.43;;;17.13;;
19727;SDS011;10015;52.530;13.390;2023-02-17T01:04:35;38.87;;;17.93;;
19727;SDS011;10015;52.530;13.390;2023-02-17T01:07:01;36.83;;;17.00;;
19727;SDS011;10015;52.530;13.390;2023-02-17T01:09:27;34.27;;;17.10;;
19727;SDS011;10015;52.530;13.390;2023-02-17T01:11:53;35.53;;;17.27;;
19727;SDS011;10015;52.530;13.390;2023-02-17T01:14:18;35.27;;;17.87;;
19727;SDS011;10015;52.530;13.390;2023-02-17T01:16:46;33.63;;;16.47;;
19727;SDS011;10015;52.530;13.390;2023-02-17T01:19:15;35.17;;;17.17;;
19727;SDS011;10015;52.530;13.390;2023-02-17T01:21:45;36.93;;;16.77;;
19727;SDS011;10015;52.530;13.390;2023-02-17T01:24:12;34.33;;;17.77;;
19727;SDS011;10015;52.530;13.390;2023-02-17T01:26:38;33.97;;;16.90;;
19727;SDS011;10015;52.530;13.390;2023-02-17T01:29:05;34.23;;;17.67;;
19727;SDS011;10015;52.530;13.390;2023-02-17T01:31:32;35.43;;;17.90;;
19727;SDS011;10015;52.530;13.390;2023-02-17T01:33:59;35.77;;;17.67;;
19727;SDS011;10015;52.530;13.390;2023-02-17T01:36:27;36.90;;;18.00;;
19727;SDS011;10015;52.530;13.390;2023-02-17T01:38:54;36.90;;;17.07;;
19727;SDS011;10015;52.530;13.390;2023-02-17T01:41:21;38.57;;;18.27;;
19727;SDS011;10015;52.530;13.390;2023-02-17T01:46:33;35.73;;;17.70;;
19727;SDS011;10015;52.530;13.390;2023-02-17T01:48:59;40.73;;;18.63;;
19727;SDS011;10015;52.530;13.390;2023-02-17T01:51:30;41.03;;;18.07;;
19727;SDS011;10015;52.530;13.390;2023-02-17T01:54:03;34.87;;;16.80;;
19727;SDS011;10015;52.530;13.390;2023-02-17T01:56:37;40.30;;;18.13;;
19727;SDS011;10015;52.530;13.390;2023-02-17T01:59:16;33.47;;;16.80;;
19727;SDS011;10015;52.530;13.390;2023-02-17T02:01:48;33.73;;;17.27;;
19727;SDS011;10015;52.530;13.390;2023-02-17T02:04:18;39.87;;;18.73;;
19727;SDS011;10015;52.530;13.390;2023-02-17T02:06:47;39.07;;;17.53;;
19727;SDS011;10015;52.530;13.390;2023-02-17T02:11:51;35.23;;;17.00;;
19727;SDS011;10015;52.530;13.390;2023-02-17T02:14:18;39.13;;;18.20;;
19727;SDS011;10015;52.530;13.390;2023-02-17T02:19:37;41.37;;;18.73;;
19727;SDS011;10015;52.530;13.390;2023-02-17T02:36:17;40.83;;;18.53;;
19727;SDS011;10015;52.530;13.390;2023-02-17T02:43:02;39.77;;;18.60;;
19727;SDS011;10015;52.530;13.390;2023-02-17T02:45:33;42.80;;;19.87;;
19727;SDS011;10015;52.530;13.390;2023-02-17T02:47:59;37.13;;;17.77;;
19727;SDS011;10015;52.530;13.390;2023-02-17T02:53:31;36.77;;;17.90;;
19727;SDS011;10015;52.530;13.390;2023-02-17T03:04:41;40.67;;;19.27;;
19727;SDS011;10015;52.530;13.390;2023-02-17T03:07:10;40.40;;;19.40;;
19727;SDS011;10015;52.530;13.390;2023-02-17T03:09:53;39.30;;;19.60;;
19727;SDS011;10015;52.530;13.390;2023-02-17T03:12:22;39.23;;;18.57;;
19727;SDS011;10015;52.530;13.390;2023-02-17T03:14:59;44.10;;;19.77;;
19727;SDS011;10015;52.530;13.390;2023-02-17T03:17:50;43.23;;;19.57;;
19727;SDS011;10015;52.530;13.390;2023-02-17T03:20:16;39.07;;;18.87;;
19727;SDS011;10015;52.530;13.390;2023-02-17T03:22:45;42.27;;;19.20;;
19727;SDS011;10015;52.530;13.390;2023-02-17T03:25:14;44.07;;;19.70;;
19727;SDS011;10015;52.530;13.390;2023-02-17T03:27:41;43.07;;;21.00;;
19727;SDS011;10015;52.530;13.390;2023-02-17T03:30:07;43.00;;;19.80;;
19727;SDS011;10015;52.530;13.390;2023-02-17T03:32:34;43.13;;;20.33;;
19727;SDS011;10015;52.530;13.390;2023-02-17T03:35:02;42.77;;;19.30;;
19727;SDS011;10015;52.530;13.390;2023-02-17T03:37:28;38.80;;;19.77;;
19727;SDS011;10015;52.530;13.390;2023-02-17T03:39:55;44.47;;;21.00;;
19727;SDS011;10015;52.530;13.390;2023-02-17T03:42:21;45.03;;;20.03;;
19727;SDS011;10015;52.530;13.390;2023-02-17T03:44:47;46.67;;;20.70;;
19727;SDS011;10015;52.530;13.390;2023-02-17T03:47:13;42.50;;;19.57;;
19727;SDS011;10015;52.530;13.390;2023-02-17T03:49:39;42.60;;;20.23;;
19727;SDS011;10015;52.530;13.390;2023-02-17T03:52:05;42.60;;;20.07;;
19727;SDS011;10015;52.530;13.390;2023-02-17T03:54:31;41.93;;;19.40;;
19727;SDS011;10015;52.530;13.390;2023-02-17T03:56:58;43.30;;;19.70;;
19727;SDS011;10015;52.530;13.390;2023-02-17T03:59:26;38.77;;;19.03;;
19727;SDS011;10015;52.530;13.390;2023-02-17T04:01:52;42.00;;;19.80;;
19727;SDS011;10015;52.530;13.390;2023-02-17T04:04:18;40.73;;;19.70;;
19727;SDS011;10015;52.530;13.390;2023-02-17T04:06:45;42.50;;;19.73;;
19727;SDS011;10015;52.530;13.390;2023-02-17T04:09:11;39.30;;;19.93;;
19727;SDS011;10015;52.530;13.390;2023-02-17T04:11:37;40.43;;;19.40;;
19727;SDS011;10015;52.530;13.390;2023-02-17T04:14:04;43.17;;;19.80;;
19727;SDS011;10015;52.530;13.390;2023-02-17T04:16:32;41.03;;;19.57;;
19727;SDS011;10015;52.530;13.390;2023-02-17T04:18:58;40.77;;;19.17;;
19727;SDS011;10015;52.530;13.390;2023-02-17T04:21:24;41.37;;;19.03;;
19727;SDS011;10015;52.530;13.390;2023-02-17T04:23:50;40.30;;;19.67;;
19727;SDS011;10015;52.530;13.390;2023-02-17T04:26:16;44.53;;;20.23;;
19727;SDS011;10015;52.530;13.390;2023-02-17T04:28:42;41.90;;;19.20;;
19727;SDS011;10015;52.530;13.390;2023-02-17T04:31:08;40.23;;;19.13;;
19727;SDS011;10015;52.530;13.390;2023-02-17T04:33:34;41.40;;;19.57;;
19727;SDS011;10015;52.530;13.390;2023-02-17T04:36:03;39.90;;;19.43;;
19727;SDS011;10015;52.530;13.390;2023-02-17T04:38:30;42.30;;;19.63;;
19727;SDS011;10015;52.530;13.390;2023-02-17T04:40:57;38.67;;;19.73;;
19727;SDS011;10015;52.530;13.390;2023-02-17T04:43:24;36.33;;;18.63;;
19727;SDS011;10015;52.530;13.390;2023-02-17T04:45:51;34.47;;;16.83;;
19727;SDS011;10015;52.530;13.390;2023-02-17T04:48:18;36.83;;;17.83;;
19727;SDS011;10015;52.530;13.390;2023-02-17T04:50:44;36.33;;;18.23;;
19727;SDS011;10015;52.530;13.390;2023-02-17T04:53:11;37.70;;;18.30;;
19727;SDS011;10015;52.530;13.390;2023-02-17T04:55:38;37.23;;;18.43;;
19727;SDS011;10015;52.530;13.390;2023-02-17T04:58:04;33.10;;;16.73;;
19727;SDS011;10015;52.530;13.390;2023-02-17T05:00:31;37.37;;;17.47;;
19727;SDS011;10015;52.530;13.390;2023-02-17T05:02:58;36.10;;;17.50;;
19727;SDS011;10015;52.530;13.390;2023-02-17T05:05:24;38.50;;;17.37;;
19727;SDS011;10015;52.530;13.390;2023-02-17T05:07:54;36.60;;;17.97;;
19727;SDS011;10015;52.530;13.390;2023-02-17T05:10:20;34.20;;;17.43;;
19727;SDS011;10015;52.530;13.390;2023-02-17T05:12:52;38.63;;;17.53;;
19727;SDS011;10015;52.530;13.390;2023-02-17T05:15:18;35.80;;;17.27;;
19727;SDS011;10015;52.530;13.390;2023-02-17T05:17:44;36.10;;;17.30;;
19727;SDS011;10015;52.530;13.390;2023-02-17T05:20:10;35.60;;;18.07;;
19727;SDS011;10015;52.530;13.390;2023-02-17T05:22:38;37.57;;;18.50;;
19727;SDS011;10015;52.530;13.390;2023-02-17T05:25:04;35.97;;;18.03;;
19727;SDS011;10015;52.530;13.390;2023-02-17T05:27:31;37.47;;;17.90;;
19727;SDS011;10015;52.530;13.390;2023-02-17T05:29:58;36.50;;;18.00;;
19727;SDS011;10015;52.530;13.390;2023-02-17T05:32:24;38.90;;;18.60;;
19727;SDS011;10015;52.530;13.390;2023-02-17T05:34:50;39.37;;;19.33;;
19727;SDS011;10015;52.530;13.390;2023-02-17T05:37:16;43.83;;;19.23;;
19727;SDS011;10015;52.530;13.390;2023-02-17T05:39:42;39.93;;;19.67;;
19727;SDS011;10015;52.530;13.390;2023-02-17T05:42:08;41.67;;;18.90;;
19727;SDS011;10015;52.530;13.390;2023-02-17T05:44:34;39.97;;;19.27;;
19727;SDS011;10015;52.530;13.390;2023-02-17T05:47:00;36.73;;;17.80;;
19727;SDS011;10015;52.530;13.390;2023-02-17T05:49:26;39.33;;;18.17;;
19727;SDS011;10015;52.530;13.390;2023-02-17T05:51:52;40.27;;;18.53;;
19727;SDS011;10015;52.530;13.390;2023-02-17T05:54:18;34.13;;;17.47;;
19727;SDS011;10015;52.530;13.390;2023-02-17T05:56:44;38.93;;;17.77;;
19727;SDS011;10015;52.530;13.390;2023-02-17T05:59:10;38.10;;;18.37;;
19727;SDS011;10015;52.530;13.390;2023-02-17T06:01:36;39.20;;;18.87;;
19727;SDS011;10015;52.530;13.390;2023-02-17T06:04:02;39.00;;;18.83;;
19727;SDS011;10015;52.530;13.390;2023-02-17T06:06:29;36.63;;;18.43;;
19727;SDS011;10015;52.530;13.390;2023-02-17T06:08:55;42.60;;;19.40;;
19727;SDS011;10015;52.530;13.390;2023-02-17T06:11:21;37.57;;;17.73;;
19727;SDS011;10015;52.530;13.390;2023-02-17T06:13:48;38.13;;;18.00;;
19727;SDS011;10015;52.530;13.390;2023-02-17T06:16:14;42.33;;;19.23;;
19727;SDS011;10015;52.530;13.390;2023-02-17T06:18:41;41.67;;;19.40;;
19727;SDS011;10015;52.530;13.390;2023-02-17T06:21:08;40.53;;;18.53;;
19727;SDS011;10015;52.530;13.390;2023-02-17T06:23:34;37.67;;;18.97;;
19727;SDS011;10015;52.530;13.390;2023-02-17T06:25:59;35.73;;;18.27;;
19727;SDS011;10015;52.530;13.390;2023-02-17T06:28:26;35.90;;;17.43;;
19727;SDS011;10015;52.530;13.390;2023-02-17T06:30:54;39.87;;;18.97;;
19727;SDS011;10015;52.530;13.390;2023-02-17T06:33:20;34.57;;;17.57;;
19727;SDS011;10015;52.530;13.390;2023-02-17T06:35:50;40.73;;;17.70;;
19727;SDS011;10015;52.530;13.390;2023-02-17T06:38:16;39.90;;;18.07;;
19727;SDS011;10015;52.530;13.390;2023-02-17T06:40:45;39.27;;;18.10;;
19727;SDS011;10015;52.530;13.390;2023-02-17T06:43:12;34.13;;;17.43;;
19727;SDS011;10015;52.530;13.390;2023-02-17T06:45:38;37.37;;;18.13;;
19727;SDS011;10015;52.530;13.390;2023-02-17T06:48:04;41.20;;;19.70;;
19727;SDS011;10015;52.530;13.390;2023-02-17T06:50:30;37.23;;;18.20;;
19727;SDS011;10015;52.530;13.390;2023-02-17T06:52:56;39.87;;;19.37;;
19727;SDS011;10015;52.530;13.390;2023-02-17T06:55:22;32.30;;;17.10;;
19727;SDS011;10015;52.530;13.390;2023-02-17T06:57:48;39.33;;;18.93;;
19727;SDS011;10015;52.530;13.390;2023-02-17T07:00:15;39.37;;;17.27;;
19727;SDS011;10015;52.530;13.390;2023-02-17T07:02:41;34.63;;;16.80;;
19727;SDS011;10015;52.530;13.390;2023-02-17T07:05:07;33.10;;;16.73;;
19727;SDS011;10015;52.530;13.390;2023-02-17T07:07:33;35.23;;;16.43;;
19727;SDS011;10015;52.530;13.390;2023-02-17T07:09:59;31.80;;;16.27;;
19727;SDS011;10015;52.530;13.390;2023-02-17T07:12:26;31.33;;;15.57;;
19727;SDS011;10015;52.530;13.390;2023-02-17T07:14:53;30.97;;;16.10;;
19727;SDS011;10015;52.530;13.390;2023-02-17T07:17:19;33.57;;;16.93;;
19727;SDS011;10015;52.530;13.390;2023-02-17T07:19:45;46.17;;;22.70;;
19727;SDS011;10015;52.530;13.390;2023-02-17T07:22:11;41.57;;;20.70;;
19727;SDS011;10015;52.530;13.390;2023-02-17T07:24:37;32.23;;;15.43;;
19727;SDS011;10015;52.530;13.390;2023-02-17T07:27:06;29.10;;;14.43;;
19727;SDS011;10015;52.530;13.390;2023-02-17T07:29:33;31.43;;;16.00;;
19727;SDS011;10015;52.530;13.390;2023-02-17T07:31:59;28.20;;;14.53;;
19727;SDS011;10015;52.530;13.390;2023-02-17T07:34:25;30.83;;;15.10;;
19727;SDS011;10015;52.530;13.390;2023-02-17T07:36:53;29.63;;;14.33;;
19727;SDS011;10015;52.530;13.390;2023-02-17T07:39:19;29.40;;;15.20;;
19727;SDS011;10015;52.530;13.390;2023-02-17T07:41:45;30.57;;;15.53;;
19727;SDS011;10015;52.530;13.390;2023-02-17T07:44:11;31.03;;;15.63;;
19727;SDS011;10015;52.530;13.390;2023-02-17T07:46:37;29.13;;;15.70;;
19727;SDS011;10015;52.530;13.390;2023-02-17T07:49:06;28.63;;;14.90;;
19727;SDS011;10015;52.530;13.390;2023-02-17T07:51:32;27.13;;;13.80;;
19727;SDS011;10015;52.530;13.390;2023-02-17T07:53:59;26.47;;;13.37;;
19727;SDS011;10015;52.530;13.390;2023-02-17T07:56:26;27.17;;;14.37;;
19727;SDS011;10015;52.530;13.390;2023-02-17T07:58:54;26.53;;;14.37;;
19727;SDS011;10015;52.530;13.390;2023-02-17T08:01:21;25.73;;;13.60;;
19727;SDS011;10015;52.530;13.390;2023-02-17T08:03:48;23.67;;;12.57;;
19727;SDS011;10015;52.530;13.390;2023-02-17T08:06:24;25.70;;;13.40;;
19727;SDS011;10015;52.530;13.390;2023-02-17T08:08:51;23.90;;;12.10;;
19727;SDS011;10015;52.530;13.390;2023-02-17T08:11:36;25.50;;;13.10;;
19727;SDS011;10015;52.530;13.390;2023-02-17T08:14:22;24.53;;;12.33;;
19727;SDS011;10015;52.530;13.390;2023-02-17T08:16:49;25.53;;;12.57;;
19727;SDS011;10015;52.530;13.390;2023-02-17T08:19:16;20.93;;;11.30;;
19727;SDS011;10015;52.530;13.390;2023-02-17T08:21:42;23.60;;;12.30;;
19727;SDS011;10015;52.530;13.390;2023-02-17T08:24:08;23.87;;;13.17;;
19727;SDS011;10015;52.530;13.390;2023-02-17T08:26:34;25.60;;;13.23;;
19727;SDS011;10015;52.530;13.390;2023-02-17T08:29:00;22.60;;;12.17;;
19727;SDS011;10015;52.530;13.390;2023-02-17T08:31:28;22.53;;;12.07;;
19727;SDS011;10015;52.530;13.390;2023-02-17T08:33:59;23.93;;;12.20;;
19727;SDS011;10015;52.530;13.390;2023-02-17T08:36:40;18.27;;;11.13;;
19727;SDS011;10015;52.530;13.390;2023-02-17T08:39:17;23.80;;;13.40;;
19727;SDS011;10015;52.530;13.390;2023-02-17T08:58:52;18.47;;;12.13;;
19727;SDS011;10015;52.530;13.390;2023-02-17T09:01:18;20.10;;;10.90;;
19727;SDS011;10015;52.530;13.390;2023-02-17T09:03:45;22.80;;;12.40;;
19727;SDS011;10015;52.530;13.390;2023-02-17T09:06:13;20.73;;;11.70;;
19727;SDS011;10015;52.530;13.390;2023-02-17T09:08:40;21.43;;;11.67;;
19727;SDS011;10015;52.530;13.390;2023-02-17T09:11:07;19.73;;;11.73;;
19727;SDS011;10015;52.530;13.390;2023-02-17T09:13:33;21.67;;;12.07;;
19727;SDS011;10015;52.530;13.390;2023-02-17T09:15:59;24.70;;;12.53;;
19727;SDS011;10015;52.530;13.390;2023-02-17T09:18:26;21.77;;;11.37;;
19727;SDS011;10015;52.530;13.390;2023-02-17T09:20:52;22.33;;;11.83;;
19727;SDS011;10015;52.530;13.390;2023-02-17T09:23:19;22.13;;;12.37;;
19727;SDS011;10015;52.530;13.390;2023-02-17T09:25:45;23.27;;;12.67;;
19727;SDS011;10015;52.530;13.390;2023-02-17T09:28:11;23.40;;;12.40;;
19727;SDS011;10015;52.530;13.390;2023-02-17T09:30:40;25.07;;;12.17;;
19727;SDS011;10015;52.530;13.390;2023-02-17T09:33:07;22.73;;;12.57;;
19727;SDS011;10015;52.530;13.390;2023-02-17T09:35:33;23.03;;;11.87;;
19727;SDS011;10015;52.530;13.390;2023-02-17T09:38:00;21.83;;;12.00;;
19727;SDS011;10015;52.530;13.390;2023-02-17T09:43:18;24.10;;;12.63;;
19727;SDS011;10015;52.530;13.390;2023-02-17T09:45:50;22.83;;;12.03;;
19727;SDS011;10015;52.530;13.390;2023-02-17T09:48:20;23.53;;;12.13;;
19727;SDS011;10015;52.530;13.390;2023-02-17T09:50:54;23.53;;;12.63;;
19727;SDS011;10015;52.530;13.390;2023-02-17T09:53:23;22.87;;;12.60;;
19727;SDS011;10015;52.530;13.390;2023-02-17T09:55:54;24.50;;;13.37;;
19727;SDS011;10015;52.530;13.390;2023-02-17T09:58:30;24.97;;;13.90;;
19727;SDS011;10015;52.530;13.390;2023-02-17T10:01:01;22.57;;;13.17;;
19727;SDS011;10015;52.530;13.390;2023-02-17T10:03:38;23.43;;;13.87;;
19727;SDS011;10015;52.530;13.390;2023-02-17T10:06:14;24.83;;;13.23;;
19727;SDS011;10015;52.530;13.390;2023-02-17T10:08:49;25.30;;;13.50;;
19727;SDS011;10015;52.530;13.390;2023-02-17T10:14:09;27.77;;;13.33;;
19727;SDS011;10015;52.530;13.390;2023-02-17T10:16:50;23.40;;;13.43;;
19727;SDS011;10015;52.530;13.390;2023-02-17T10:19:33;23.40;;;13.43;;
19727;SDS011;10015;52.530;13.390;2023-02-17T10:22:17;28.60;;;13.83;;
19727;SDS011;10015;52.530;13.390;2023-02-17T10:24:45;23.23;;;13.17;;
19727;SDS011;10015;52.530;13.390;2023-02-17T10:27:28;22.53;;;12.90;;
19727;SDS011;10015;52.530;13.390;2023-02-17T10:30:05;22.47;;;12.80;;
19727;SDS011;10015;52.530;13.390;2023-02-17T10:33:27;22.23;;;12.50;;
19727;SDS011;10015;52.530;13.390;2023-02-17T10:36:18;22.37;;;13.03;;
19727;SDS011;10015;52.530;13.390;2023-02-17T10:38:52;23.27;;;12.93;;
19727;SDS011;10015;52.530;13.390;2023-02-17T10:41:26;24.50;;;13.63;;
19727;SDS011;10015;52.530;13.390;2023-02-17T10:43:57;25.07;;;13.53;;
19727;SDS011;10015;52.530;13.390;2023-02-17T10:46:28;26.10;;;13.87;;
19727;SDS011;10015;52.530;13.390;2023-02-17T10:48:55;28.73;;;15.37;;
19727;SDS011;10015;52.530;13.390;2023-02-17T10:51:27;25.00;;;14.17;;
19727;SDS011;10015;52.530;13.390;2023-02-17T10:54:41;23.80;;;13.97;;
19727;SDS011;10015;52.530;13.390;2023-02-17T10:56:59;23.33;;;13.67;;
19727;SDS011;10015;52.530;13.390;2023-02-17T10:59:32;24.97;;;12.97;;
19727;SDS011;10015;52.530;13.390;2023-02-17T11:02:47;25.53;;;13.60;;
19727;SDS011;10015;52.530;13.390;2023-02-17T11:05:02;25.07;;;13.73;;
19727;SDS011;10015;52.530;13.390;2023-02-17T11:07:32;29.37;;;14.90;;
19727;SDS011;10015;52.530;13.390;2023-02-17T11:10:02;27.53;;;13.90;;
19727;SDS011;10015;52.530;13.390;2023-02-17T11:12:44;27.13;;;13.57;;
19727;SDS011;10015;52.530;13.390;2023-02-17T11:15:15;25.90;;;13.27;;
19727;SDS011;10015;52.530;13.390;2023-02-17T11:17:44;27.30;;;13.83;;
19727;SDS011;10015;52.530;13.390;2023-02-17T11:22:41;24.87;;;13.57;;
19727;SDS011;10015;52.530;13.390;2023-02-17T11:25:20;22.23;;;13.07;;
19727;SDS011;10015;52.530;13.390;2023-02-17T11:28:00;30.27;;;13.57;;
19727;SDS011;10015;52.530;13.390;2023-02-17T11:30:29;26.03;;;14.13;;
19727;SDS011;10015;52.530;13.390;2023-02-17T11:32:56;25.20;;;13.17;;
19727;SDS011;10015;52.530;13.390;2023-02-17T11:38:00;24.27;;;13.43;;
19727;SDS011;10015;52.530;13.390;2023-02-17T11:40:28;25.60;;;13.30;;
19727;SDS011;10015;52.530;13.390;2023-02-17T11:42:56;24.13;;;13.33;;
19727;SDS011;10015;52.530;13.390;2023-02-17T11:45:24;26.93;;;13.03;;
19727;SDS011;10015;52.530;13.390;2023-02-17T11:51:06;21.07;;;11.90;;
19727;SDS011;10015;52.530;13.390;2023-02-17T11:53:57;24.03;;;13.63;;
19727;SDS011;10015;52.530;13.390;2023-02-17T11:56:44;26.10;;;12.77;;
19727;SDS011;10015;52.530;13.390;2023-02-17T12:04:46;21.23;;;11.93;;
19727;SDS011;10015;52.530;13.390;2023-02-17T12:12:57;24.27;;;11.90;;
19727;SDS011;10015;52.530;13.390;2023-02-17T12:18:07;20.23;;;11.00;;
19727;SDS011;10015;52.530;13.390;2023-02-17T12:20:49;19.93;;;11.57;;
19727;SDS011;10015;52.530;13.390;2023-02-17T12:32:02;21.13;;;10.33;;
19727;SDS011;10015;52.530;13.390;2023-02-17T12:34:48;21.17;;;10.03;;
19727;SDS011;10015;52.530;13.390;2023-02-17T12:37:20;17.87;;;9.60;;
19727;SDS011;10015;52.530;13.390;2023-02-17T12:42:35;16.70;;;8.90;;
19727;SDS011;10015;52.530;13.390;2023-02-17T12:45:05;17.23;;;9.40;;
19727;SDS011;10015;52.530;13.390;2023-02-17T12:47:45;13.57;;;8.70;;
19727;SDS011;10015;52.530;13.390;2023-02-17T12:50:23;15.70;;;8.70;;
19727;SDS011;10015;52.530;13.390;2023-02-17T12:52:55;12.80;;;7.93;;
19727;SDS011;10015;52.530;13.390;2023-02-17T12:55:24;16.73;;;9.93;;
19727;SDS011;10015;52.530;13.390;2023-02-17T12:58:10;25.93;;;12.33;;
19727;SDS011;10015;52.530;13.390;2023-02-17T13:00:41;11.73;;;7.10;;
19727;SDS011;10015;52.530;13.390;2023-02-17T13:03:10;15.33;;;7.97;;
19727;SDS011;10015;52.530;13.390;2023-02-17T13:10:39;13.57;;;6.87;;
19727;SDS011;10015;52.530;13.390;2023-02-17T13:15:42;10.30;;;6.37;;
19727;SDS011;10015;52.530;13.390;2023-02-17T13:23:40;10.37;;;6.27;;
19727;SDS011;10015;52.530;13.390;2023-02-17T13:28:42;10.57;;;5.77;;
19727;SDS011;10015;52.530;13.390;2023-02-17T13:31:24;10.53;;;6.00;;
19727;SDS011;10015;52.530;13.390;2023-02-17T13:33:52;11.77;;;6.73;;
19727;SDS011;10015;52.530;13.390;2023-02-17T13:39:35;10.43;;;5.63;;
19727;SDS011;10015;52.530;13.390;2023-02-17T13:41:50;8.87;;;5.37;;
19727;SDS011;10015;52.530;13.390;2023-02-17T13:44:27;8.57;;;5.60;;
19727;SDS011;10015;52.530;13.390;2023-02-17T13:47:02;9.97;;;5.07;;
19727;SDS011;10015;52.530;13.390;2023-02-17T13:49:40;8.53;;;5.03;;
19727;SDS011;10015;52.530;13.390;2023-02-17T13:52:25;8.50;;;5.17;;
19727;SDS011;10015;52.530;13.390;2023-02-17T13:54:56;8.83;;;5.13;;
19727;SDS011;10015;52.530;13.390;2023-02-17T13:57:32;8.30;;;5.23;;
19727;SDS011;10015;52.530;13.390;2023-02-17T14:00:04;10.07;;;5.60;;
19727;SDS011;10015;52.530;13.390;2023-02-17T14:02:38;9.80;;;5.93;;
19727;SDS011;10015;52.530;13.390;2023-02-17T14:05:19;7.77;;;5.00;;
19727;SDS011;10015;52.530;13.390;2023-02-17T14:07:50;8.40;;;5.20;;
19727;SDS011;10015;52.530;13.390;2023-02-17T14:10:24;8.23;;;5.00;;
19727;SDS011;10015;52.530;13.390;2023-02-17T14:12:54;7.70;;;5.00;;
19727;SDS011;10015;52.530;13.390;2023-02-17T14:15:22;9.43;;;5.67;;
19727;SDS011;10015;52.530;13.390;2023-02-17T14:17:50;7.83;;;5.33;;
19727;SDS011;10015;52.530;13.390;2023-02-17T14:20:50;10.23;;;6.60;;
19727;SDS011;10015;52.530;13.390;2023-02-17T14:23:10;14.83;;;7.83;;
19727;SDS011;10015;52.530;13.390;2023-02-17T14:25:39;8.87;;;5.33;;
19727;SDS011;10015;52.530;13.390;2023-02-17T14:28:16;8.67;;;5.60;;
19727;SDS011;10015;52.530;13.390;2023-02-17T14:30:42;8.43;;;5.00;;
19727;SDS011;10015;52.530;13.390;2023-02-17T14:38:24;8.20;;;5.30;;
19727;SDS011;10015;52.530;13.390;2023-02-17T14:40:52;7.87;;;5.23;;
19727;SDS011;10015;52.530;13.390;2023-02-17T14:43:20;9.40;;;5.40;;
19727;SDS011;10015;52.530;13.390;2023-02-17T14:45:47;12.03;;;5.40;;
19727;SDS011;10015;52.530;13.390;2023-02-17T14:48:13;8.60;;;5.40;;
19727;SDS011;10015;52.530;13.390;2023-02-17T14:50:39;7.30;;;5.10;;
19727;SDS011;10015;52.530;13.390;2023-02-17T14:53:10;10.37;;;5.53;;
19727;SDS011;10015;52.530;13.390;2023-02-17T14:55:47;10.27;;;6.20;;
19727;SDS011;10015;52.530;13.390;2023-02-17T14:58:23;11.17;;;7.10;;
19727;SDS011;10015;52.530;13.390;2023-02-17T15:00:51;14.83;;;8.60;;
19727;SDS011;10015;52.530;13.390;2023-02-17T15:03:17;11.40;;;6.57;;
19727;SDS011;10015;52.530;13.390;2023-02-17T15:05:43;9.63;;;6.20;;
19727;SDS011;10015;52.530;13.390;2023-02-17T15:08:11;10.33;;;6.47;;
19727;SDS011;10015;52.530;13.390;2023-02-17T15:10:42;10.97;;;6.80;;
19727;SDS011;10015;52.530;13.390;2023-02-17T15:13:11;13.87;;;6.87;;
19727;SDS011;10015;52.530;13.390;2023-02-17T15:15:42;10.33;;;6.97;;
19727;SDS011;10015;52.530;13.390;2023-02-17T15:18:13;13.40;;;6.93;;
19727;SDS011;10015;52.530;13.390;2023-02-17T15:20:41;11.17;;;7.13;;
19727;SDS011;10015;52.530;13.390;2023-02-17T15:23:27;17.67;;;9.83;;
19727;SDS011;10015;52.530;13.390;2023-02-17T15:25:56;12.80;;;7.37;;
19727;SDS011;10015;52.530;13.390;2023-02-17T15:28:22;13.93;;;8.17;;
19727;SDS011;10015;52.530;13.390;2023-02-17T15:30:49;12.30;;;7.63;;
19727;SDS011;10015;52.530;13.390;2023-02-17T15:33:17;12.00;;;7.83;;
19727;SDS011;10015;52.530;13.390;2023-02-17T15:35:44;12.67;;;8.10;;
19727;SDS011;10015;52.530;13.390;2023-02-17T15:38:11;12.87;;;8.37;;
19727;SDS011;10015;52.530;13.390;2023-02-17T15:40:38;14.87;;;8.27;;
19727;SDS011;10015;52.530;13.390;2023-02-17T15:43:08;13.40;;;8.20;;
19727;SDS011;10015;52.530;13.390;2023-02-17T15:45:36;12.17;;;7.30;;
19727;SDS011;10015;52.530;13.390;2023-02-17T15:48:03;13.13;;;7.93;;
19727;SDS011;10015;52.530;13.390;2023-02-17T15:50:32;12.83;;;8.23;;
19727;SDS011;10015;52.530;13.390;2023-02-17T15:52:58;12.77;;;8.27;;
19727;SDS011;10015;52.530;13.390;2023-02-17T15:55:24;13.60;;;8.13;;
19727;SDS011;10015;52.530;13.390;2023-02-17T15:57:53;14.27;;;8.17;;
19727;SDS011;10015;52.530;13.390;2023-02-17T16:00:23;14.50;;;8.17;;
19727;SDS011;10015;52.530;13.390;2023-02-17T16:02:51;12.83;;;8.33;;
19727;SDS011;10015;52.530;13.390;2023-02-17T16:05:18;15.50;;;8.13;;
19727;SDS011;10015;52.530;13.390;2023-02-17T16:07:46;14.20;;;8.37;;
19727;SDS011;10015;52.530;13.390;2023-02-17T16:10:14;13.93;;;8.30;;
19727;SDS011;10015;52.530;13.390;2023-02-17T16:12:42;15.23;;;8.27;;
19727;SDS011;10015;52.530;13.390;2023-02-17T16:15:12;13.90;;;8.20;;
19727;SDS011;10015;52.530;13.390;2023-02-17T16:17:46;13.83;;;8.00;;
19727;SDS011;10015;52.530;13.390;2023-02-17T16:20:15;20.60;;;10.73;;
19727;SDS011;10015;52.530;13.390;2023-02-17T16:22:44;19.17;;;10.37;;
19727;SDS011;10015;52.530;13.390;2023-02-17T16:25:11;18.03;;;10.73;;